»·PEaware :: SWA663 KLAS-KTUS

SWA663 :: KLAS-KTUS

FLIGHT INFORMATION

Flight Status: Arrived
Operator:
Southwest Airlines
More flights by this operator :: More flights under this callsign
Pilot: Daniel W. (24238)
Aircraft: BOEING 737-800
(B738)
More flights by this aircraft type
Origin: KLAS McCarran Intl
United States
Destination: KTUS Tucson Intl
United States
More flights between these airports :: More routes between these airports
Route: PRFUM4 DRK J11 PXR DINGO5
File this flight plan on PilotEdge
Remarks: PBN / A1D1O1S2T1 NAV / RNVD1E1A1 RNP10 DOF / 200331 REG / N8692F EET / KZAB0019 SEL / FSBJ CODE / ABF2EA PER / C
Altitude:
(Current/Filed)
35,000ft
Speed:
(Current/Filed)
400kts
Departed: 30-Mar-20 08:17 PM
Arrived: 30-Mar-20 09:11 PM
Distance/Time
Traveled:
317nm/0:54
Distance/Time
To Go:
Arrived

Flight Plot

Page will automatically refresh every two minutes.

Flight plan parsing failed; only flown route is shown


Map Options




Map Legend


Flown Route
Filed Route
Departure Airport
Arrival Airport
Navaid (VOR, NDB)
Fix

Horizontal Profiles

Position Reports

Time Latitude Longitude Heading Altitude Ground
Speed
30-Mar-20 19:40 36.081224 -115.146139 254 2189ft 0kts
30-Mar-20 19:41 36.081224 -115.146139 254 2189ft 0kts
30-Mar-20 19:42 36.081224 -115.146139 254 2189ft 0kts
30-Mar-20 19:43 36.081224 -115.146139 254 2189ft 0kts
30-Mar-20 19:44 36.081224 -115.146139 254 2189ft 0kts
30-Mar-20 19:45 36.081224 -115.146139 254 2189ft 0kts
30-Mar-20 19:46 36.081224 -115.146139 254 2189ft 0kts
30-Mar-20 19:47 36.081224 -115.146139 254 2189ft 0kts
30-Mar-20 19:48 36.081224 -115.146139 254 2189ft 0kts
30-Mar-20 19:49 36.081224 -115.146139 254 2189ft 0kts
30-Mar-20 19:50 36.081224 -115.146139 254 2189ft 0kts
30-Mar-20 19:51 36.081224 -115.146139 254 2189ft 0kts
30-Mar-20 19:52 36.081224 -115.146139 254 2189ft 0kts
30-Mar-20 19:53 36.081224 -115.146139 254 2189ft 0kts
30-Mar-20 19:54 36.081224 -115.146139 254 2189ft 0kts
30-Mar-20 19:55 36.081224 -115.146139 254 2189ft 0kts
30-Mar-20 19:56 36.081234 -115.146094 253 2189ft 1kts
30-Mar-20 19:57 36.081636 -115.145287 210 2189ft 2kts
30-Mar-20 19:58 36.081653 -115.145275 209 2189ft 0kts
30-Mar-20 19:59 36.081653 -115.145275 209 2189ft 0kts
30-Mar-20 20:00 36.080506 -115.144854 176 2189ft 12kts
30-Mar-20 20:01 36.079003 -115.144844 180 2189ft 0kts
30-Mar-20 20:02 36.079001 -115.144844 180 2189ft 0kts
30-Mar-20 20:03 36.079000 -115.144844 180 2189ft 0kts
30-Mar-20 20:04 36.079000 -115.144844 180 2189ft 0kts
30-Mar-20 20:05 36.079000 -115.144844 180 2189ft 0kts
30-Mar-20 20:06 36.079000 -115.144844 180 2189ft 0kts
30-Mar-20 20:07 36.079000 -115.144844 180 2189ft 0kts
30-Mar-20 20:08 36.079000 -115.144844 180 2189ft 0kts
30-Mar-20 20:09 36.079000 -115.144844 180 2189ft 0kts
30-Mar-20 20:10 36.078748 -115.144832 169 2189ft 14kts
30-Mar-20 20:11 36.078272 -115.137869 89 2189ft 21kts
30-Mar-20 20:12 36.078276 -115.131209 90 2189ft 17kts
30-Mar-20 20:13 36.078284 -115.124546 89 2189ft 20kts
30-Mar-20 20:14 36.077499 -115.121492 130 2189ft 0kts
30-Mar-20 20:15 36.077499 -115.121492 130 2189ft 0kts
30-Mar-20 20:16 36.076419 -115.125823 270 2189ft 78kts
30-Mar-20 20:18 36.076240 -115.183580 269 4147ft 213kts
30-Mar-20 20:19 36.061901 -115.264587 222 7402ft 273kts
30-Mar-20 20:20 35.987795 -115.293841 195 11718ft 303kts
30-Mar-20 20:21 35.895033 -115.271566 155 14892ft 370kts
30-Mar-20 20:22 35.842378 -115.162753 101 18400ft 401kts
30-Mar-20 20:23 35.823685 -115.026897 84 19245ft 404kts
30-Mar-20 20:24 35.834319 -114.903187 81 21318ft 416kts
30-Mar-20 20:25 35.844604 -114.764760 82 24031ft 438kts
30-Mar-20 20:26 35.851273 -114.671644 82 25648ft 451kts
30-Mar-20 20:27 35.817703 -114.521433 124 27948ft 473kts
30-Mar-20 20:28 35.743253 -114.385159 124 29957ft 490kts
30-Mar-20 20:29 35.667328 -114.242370 125 31728ft 504kts
30-Mar-20 20:30 35.590439 -114.098474 126 33886ft 501kts
30-Mar-20 20:31 35.513324 -113.955180 127 35261ft 507kts
30-Mar-20 20:32 35.435794 -113.811908 128 35287ft 502kts
30-Mar-20 20:33 35.358035 -113.668981 128 35290ft 504kts
30-Mar-20 20:34 35.280194 -113.525432 128 35294ft 507kts
30-Mar-20 20:34 35.215193 -113.405939 128 35290ft 509kts
30-Mar-20 20:36 35.122980 -113.237654 129 35298ft 513kts
30-Mar-20 20:37 35.043397 -113.093063 129 35306ft 514kts
30-Mar-20 20:38 34.963295 -112.948162 129 35312ft 517kts
30-Mar-20 20:38 34.896349 -112.827429 130 35321ft 517kts
30-Mar-20 20:39 34.815613 -112.681978 130 35323ft 518kts
30-Mar-20 20:41 34.718571 -112.515236 141 35315ft 509kts
30-Mar-20 20:41 34.621367 -112.445886 171 35322ft 479kts
30-Mar-20 20:42 34.494942 -112.395853 173 35317ft 480kts
30-Mar-20 20:43 34.368102 -112.344666 173 35298ft 482kts
30-Mar-20 20:45 34.220040 -112.284578 174 35275ft 479kts
30-Mar-20 20:45 34.115455 -112.242498 174 35257ft 478kts
30-Mar-20 20:46 33.995408 -112.194362 174 35235ft 476kts
30-Mar-20 20:47 33.869876 -112.143959 174 35222ft 476kts
30-Mar-20 20:48 33.744348 -112.093925 174 35210ft 472kts
30-Mar-20 20:49 33.618995 -112.043994 174 35216ft 476kts
30-Mar-20 20:50 33.493996 -111.994277 175 35202ft 472kts
30-Mar-20 20:51 33.369537 -111.962640 188 34487ft 434kts
30-Mar-20 20:52 33.246550 -111.949434 184 30568ft 457kts
30-Mar-20 20:53 33.121178 -111.935128 181 27865ft 443kts
30-Mar-20 20:54 33.000623 -111.921578 180 25346ft 428kts
30-Mar-20 20:55 32.884312 -111.901061 163 22865ft 423kts
30-Mar-20 20:56 32.785773 -111.826654 146 20548ft 415kts
30-Mar-20 20:57 32.693831 -111.749710 147 17493ft 394kts
30-Mar-20 20:58 32.607679 -111.678735 146 15579ft 347kts
30-Mar-20 20:59 32.551358 -111.591251 120 14285ft 331kts
30-Mar-20 21:00 32.504547 -111.499503 120 12538ft 321kts
30-Mar-20 21:01 32.459034 -111.411032 120 11213ft 309kts
30-Mar-20 21:02 32.415247 -111.325714 120 9871ft 298kts
30-Mar-20 21:03 32.373220 -111.243144 120 8458ft 288kts
30-Mar-20 21:04 32.332255 -111.162679 120 6946ft 282kts
30-Mar-20 21:05 32.269089 -111.116163 159 5980ft 257kts
30-Mar-20 21:06 32.221786 -111.063850 134 5341ft 220kts
30-Mar-20 21:07 32.184352 -111.019311 134 4318ft 162kts
30-Mar-20 21:08 32.155171 -110.984895 135 3524ft 140kts
30-Mar-20 21:09 32.126918 -110.952004 135 2763ft 139kts
30-Mar-20 21:10 32.113201 -110.935356 64 2651ft 16kts
30-Mar-20 21:11 32.116507 -110.938235 315 2651ft 19kts
30-Mar-20 21:12 32.119078 -110.938670 43 2651ft 4kts
30-Mar-20 21:13 32.119176 -110.938558 44 2651ft 0kts
30-Mar-20 21:14 32.119176 -110.938558 44 2651ft 0kts
30-Mar-20 21:15 32.119176 -110.938558 44 2651ft 0kts
30-Mar-20 21:16 32.119176 -110.938558 44 2651ft 0kts
30-Mar-20 21:17 32.119176 -110.938558 44 2651ft 0kts
30-Mar-20 21:18 32.119176 -110.938558 44 2651ft 0kts

Navigation Log

Ident Type
Flight plan parsing failed, navigation log unavailable